createdAt,value
2023-05-22T04:00:30.372Z,994.32
2023-05-22T04:05:30.485Z,994.23
2023-05-22T04:10:30.245Z,994.28
2023-05-22T04:15:37.283Z,994.30
2023-05-22T04:20:30.148Z,994.31
2023-05-22T04:25:30.111Z,994.35
2023-05-22T04:30:30.111Z,994.39
2023-05-22T04:35:29.995Z,994.44
2023-05-22T04:40:29.920Z,994.49
2023-05-22T04:45:29.880Z,994.52
2023-05-22T04:50:29.810Z,994.47
2023-05-22T04:55:29.788Z,994.45
2023-05-22T05:00:29.694Z,994.46
2023-05-22T05:05:29.674Z,994.38
2023-05-22T05:10:29.613Z,994.31
2023-05-22T05:15:29.619Z,994.37
2023-05-22T05:20:29.633Z,994.41
2023-05-22T05:25:29.459Z,994.41
2023-05-22T05:30:29.361Z,994.49
2023-05-22T05:35:29.376Z,994.59
2023-05-22T05:40:29.283Z,994.56
2023-05-22T05:45:29.213Z,994.59
2023-05-22T05:50:29.166Z,994.61
2023-05-22T05:55:29.122Z,994.71
2023-05-22T06:00:29.064Z,994.74
2023-05-22T06:05:29.076Z,994.82
2023-05-22T06:10:28.930Z,994.81
2023-05-22T06:15:28.951Z,994.80
2023-05-22T06:20:28.876Z,994.87
2023-05-22T06:25:28.902Z,994.87
2023-05-22T06:30:43.720Z,994.93
2023-05-22T06:35:29.727Z,994.95
2023-05-22T06:40:28.643Z,994.94
2023-05-22T06:45:28.570Z,995.01
2023-05-22T06:50:28.553Z,995.04
2023-05-22T06:55:28.654Z,995.07
2023-05-22T07:00:28.413Z,995.10
2023-05-22T07:05:28.397Z,995.05
2023-05-22T07:10:28.349Z,995.09
2023-05-22T07:15:28.290Z,995.06
2023-05-22T07:20:28.241Z,995.04
2023-05-22T07:25:28.144Z,995.11
2023-05-22T07:30:28.071Z,995.18
2023-05-22T07:35:28.083Z,995.15
2023-05-22T07:40:28.020Z,995.23
2023-05-22T07:45:27.938Z,995.30
2023-05-22T07:50:27.872Z,995.32
2023-05-22T07:55:27.864Z,995.39
2023-05-22T08:00:27.791Z,995.38
2023-05-22T08:05:27.725Z,995.46
2023-05-22T08:10:30.016Z,995.43
2023-05-22T08:15:28.751Z,995.44
2023-05-22T08:20:27.593Z,995.50
2023-05-22T08:25:27.492Z,995.56
2023-05-22T08:30:27.424Z,995.63
2023-05-22T08:35:27.557Z,995.69
2023-05-22T08:40:27.311Z,995.58
2023-05-22T08:45:27.270Z,995.58
2023-05-22T08:50:27.219Z,995.59
2023-05-22T08:55:27.341Z,995.59
2023-05-22T09:00:27.131Z,995.62
2023-05-22T09:05:27.079Z,995.64
2023-05-22T09:10:26.999Z,995.70
2023-05-22T09:15:27.111Z,995.68
2023-05-22T09:20:26.984Z,995.79
2023-05-22T09:25:26.861Z,995.75
2023-05-22T09:30:26.793Z,995.83
2023-05-22T09:35:26.981Z,995.79
2023-05-22T09:40:26.702Z,995.83
2023-05-22T09:45:26.629Z,995.81
2023-05-22T09:50:26.579Z,995.75
2023-05-22T09:55:26.530Z,995.84
2023-05-22T10:00:26.466Z,995.80
2023-05-22T10:05:26.778Z,995.80
2023-05-22T10:10:26.349Z,995.80
2023-05-22T10:15:33.503Z,995.78
2023-05-22T10:20:26.242Z,995.88
2023-05-22T10:25:26.219Z,995.92
2023-05-22T10:30:26.150Z,995.82
2023-05-22T10:35:26.228Z,995.82
2023-05-22T10:40:26.958Z,995.78
2023-05-22T10:45:26.033Z,995.67
2023-05-22T10:50:25.928Z,995.67
2023-05-22T10:55:25.992Z,995.66
2023-05-22T11:00:25.823Z,995.64
2023-05-22T11:05:25.834Z,995.52
2023-05-22T11:10:25.713Z,995.58
2023-05-22T11:15:25.819Z,995.60
2023-05-22T11:20:25.863Z,995.56
2023-05-22T11:25:25.567Z,995.54
2023-05-22T11:30:25.509Z,995.51
2023-05-22T11:35:25.579Z,995.51
2023-05-22T11:40:25.450Z,995.50
2023-05-22T11:45:25.381Z,995.51
2023-05-22T11:50:40.955Z,995.40
2023-05-22T11:55:26.426Z,995.37
2023-05-22T12:00:25.201Z,995.29
2023-05-22T12:05:25.147Z,995.29
2023-05-22T12:10:25.068Z,995.19
2023-05-22T12:15:25.140Z,995.19
2023-05-22T12:20:24.982Z,995.14
2023-05-22T12:25:25.011Z,995.23
2023-05-22T12:30:24.898Z,995.09
2023-05-22T12:35:24.964Z,995.15
2023-05-22T12:40:24.774Z,995.07
2023-05-22T12:45:24.709Z,995.16
2023-05-22T12:50:24.693Z,995.09
2023-05-22T12:55:24.710Z,995.06
2023-05-22T13:00:24.568Z,995.04
2023-05-22T13:05:24.666Z,995.05
2023-05-22T13:10:24.456Z,995.03
2023-05-22T13:15:24.605Z,994.99
2023-05-22T13:20:24.344Z,995.09
2023-05-22T13:25:24.282Z,995.07
2023-05-22T13:30:24.233Z,995.01
2023-05-22T13:35:24.339Z,995.03
2023-05-22T13:40:24.170Z,994.96
2023-05-22T13:45:24.089Z,994.98
2023-05-22T13:50:24.048Z,994.91
2023-05-22T13:55:24.099Z,994.97
2023-05-22T14:00:23.910Z,994.96
2023-05-22T14:05:23.860Z,994.88
2023-05-22T14:10:23.806Z,994.93
2023-05-22T14:15:24.323Z,995.02
2023-05-22T14:20:23.702Z,995.12
2023-05-22T14:25:23.644Z,994.99
2023-05-22T14:30:23.605Z,995.05
2023-05-22T14:35:23.673Z,994.97
2023-05-22T14:40:23.493Z,994.95
2023-05-22T14:45:23.446Z,994.94
2023-05-22T14:50:23.406Z,994.81
2023-05-22T14:55:23.353Z,994.84
2023-05-22T15:00:23.304Z,994.77
2023-05-22T15:05:23.419Z,994.64
2023-05-22T15:10:23.171Z,994.59
2023-05-22T15:15:23.163Z,994.60
2023-05-22T15:20:23.074Z,994.58
2023-05-22T15:25:23.039Z,994.47
2023-05-22T15:30:22.972Z,994.41
2023-05-22T15:35:23.024Z,994.39
2023-05-22T15:40:22.885Z,994.40
2023-05-22T15:45:22.937Z,994.32
2023-05-22T15:50:22.751Z,994.33
2023-05-22T15:55:22.822Z,994.29
2023-05-22T16:00:22.673Z,994.42
2023-05-22T16:05:22.621Z,994.44
2023-05-22T16:10:22.566Z,994.47
2023-05-22T16:15:29.634Z,994.51
2023-05-22T16:20:22.717Z,994.57
2023-05-22T16:25:22.375Z,994.50
2023-05-22T16:30:22.320Z,994.61
2023-05-22T16:35:22.396Z,994.69
2023-05-22T16:40:22.221Z,994.56
2023-05-22T16:45:22.162Z,994.68
2023-05-22T16:50:22.112Z,994.63
2023-05-22T16:55:22.178Z,994.59
2023-05-22T17:00:22.015Z,994.57
2023-05-22T17:05:21.966Z,994.74
2023-05-22T17:10:21.914Z,994.58
2023-05-22T17:15:21.973Z,994.72
2023-05-22T17:20:21.789Z,994.72
2023-05-22T17:25:21.756Z,994.71
2023-05-22T17:30:21.682Z,994.74
2023-05-22T17:35:21.759Z,994.71
2023-05-22T17:40:22.558Z,994.83
2023-05-22T17:45:22.531Z,994.86
2023-05-22T17:50:21.481Z,995.00
2023-05-22T17:55:21.542Z,995.11
2023-05-22T18:00:21.364Z,995.08
2023-05-22T18:05:21.312Z,995.18
2023-05-22T18:10:21.256Z,995.28
2023-05-22T18:15:21.327Z,995.34
2023-05-22T18:20:21.169Z,995.48
2023-05-22T18:25:21.098Z,995.51
2023-05-22T18:30:21.042Z,995.59
2023-05-22T18:35:21.112Z,995.66
2023-05-22T18:40:20.932Z,995.68
2023-05-22T18:45:20.882Z,995.64
2023-05-22T18:50:23.339Z,995.78
2023-05-22T18:55:20.893Z,995.84
2023-05-22T19:00:20.719Z,995.92
2023-05-22T19:05:20.667Z,996.02
2023-05-22T19:10:20.609Z,996.08
2023-05-22T19:15:20.684Z,996.14
2023-05-22T19:20:20.500Z,996.17
2023-05-22T19:25:20.439Z,996.18
2023-05-22T19:30:20.394Z,996.26
2023-05-22T19:35:20.458Z,996.32
2023-05-22T19:40:20.298Z,996.33
2023-05-22T19:45:20.214Z,996.43
2023-05-22T19:50:20.182Z,996.38
2023-05-22T19:55:20.250Z,996.50
2023-05-22T20:00:20.067Z,996.58
2023-05-22T20:05:20.035Z,996.70
2023-05-22T20:10:19.954Z,996.74
2023-05-22T20:15:20.023Z,996.74
2023-05-22T20:20:19.848Z,996.79
2023-05-22T20:25:19.792Z,996.81
2023-05-22T20:30:19.754Z,996.87
2023-05-22T20:35:19.804Z,997.01
2023-05-22T20:40:19.638Z,996.97
2023-05-22T20:45:19.609Z,996.93
2023-05-22T20:50:19.532Z,996.95
2023-05-22T20:55:19.602Z,997.03
2023-05-22T21:00:19.421Z,997.08
2023-05-22T21:05:19.378Z,997.01
2023-05-22T21:10:19.307Z,996.98
2023-05-22T21:15:19.385Z,996.97
2023-05-22T21:20:19.209Z,996.94
2023-05-22T21:25:19.152Z,996.94
2023-05-22T21:30:19.099Z,997.00
2023-05-22T21:35:19.166Z,996.95
2023-05-22T21:40:19.003Z,997.09
2023-05-22T21:45:18.954Z,997.02
2023-05-22T21:50:18.896Z,997.06
2023-05-22T21:55:18.949Z,997.13
2023-05-22T22:00:19.211Z,997.21
2023-05-22T22:05:18.712Z,997.13
2023-05-22T22:10:18.660Z,997.18
2023-05-22T22:15:18.740Z,997.26
2023-05-22T22:20:42.402Z,997.27
2023-05-22T22:25:19.612Z,997.19
2023-05-22T22:30:18.454Z,997.31
2023-05-22T22:35:18.517Z,997.40
2023-05-22T22:40:18.368Z,997.57
2023-05-22T22:45:18.312Z,997.55
2023-05-22T22:50:18.245Z,997.52
2023-05-22T22:55:18.318Z,997.59
2023-05-22T23:00:18.152Z,997.62
2023-05-22T23:05:18.086Z,997.61
2023-05-22T23:10:18.017Z,997.71
2023-05-22T23:15:18.086Z,997.76
2023-05-22T23:20:17.909Z,997.83
2023-05-22T23:25:17.866Z,997.85
